createdAt,value
2017-11-10T00:00:44.190Z,50.2
2017-11-10T00:01:45.644Z,50.2
2017-11-10T00:02:47.465Z,50.4
2017-11-10T00:03:49.640Z,50.3
2017-11-10T00:04:51.451Z,50.3
2017-11-10T00:05:53.609Z,50.4
2017-11-10T00:06:55.414Z,50.4
2017-11-10T00:07:57.212Z,50
2017-11-10T00:08:59.374Z,50.2
2017-11-10T00:10:01.547Z,50.4
2017-11-10T00:11:03.717Z,50.1
2017-11-10T00:12:05.169Z,50.2
2017-11-10T00:13:07.332Z,50.2
2017-11-10T00:14:09.129Z,50.1
2017-11-10T00:15:10.929Z,50.2
2017-11-10T00:16:13.090Z,50.2
2017-11-10T00:17:14.569Z,49.9
2017-11-10T00:18:16.386Z,50.1
2017-11-10T00:19:17.514Z,50.2
2017-11-10T00:20:19.324Z,50.4
2017-11-10T00:21:20.798Z,50.4
2017-11-10T00:22:22.623Z,50.3
2017-11-10T00:23:24.782Z,50.2
2017-11-10T00:24:26.577Z,50.4
2017-11-10T00:25:28.757Z,50.1
2017-11-10T00:26:30.577Z,50.2
2017-11-10T00:27:32.746Z,50.3
2017-11-10T00:28:34.910Z,50.2
2017-11-10T00:29:36.381Z,50.2
2017-11-10T00:30:38.595Z,50.1
2017-11-10T00:31:40.432Z,50
2017-11-10T00:32:42.238Z,50.1
2017-11-10T00:33:43.697Z,50
2017-11-10T00:34:45.501Z,50
2017-11-10T00:35:47.673Z,50.1
2017-11-10T00:36:49.840Z,50.1
2017-11-10T00:37:51.316Z,50.2
2017-11-10T00:38:53.119Z,50
2017-11-10T00:39:54.923Z,50.1
2017-11-10T00:40:57.084Z,50.1
2017-11-10T00:41:58.893Z,50
2017-11-10T00:43:00.696Z,50
2017-11-10T00:44:02.524Z,50
2017-11-10T00:45:04.684Z,50
2017-11-10T00:46:06.159Z,50
2017-11-10T00:47:07.982Z,49.8
2017-11-10T00:48:10.145Z,50
2017-11-10T00:49:12.307Z,49.8
2017-11-10T00:50:14.473Z,50
2017-11-10T00:51:16.633Z,50
2017-11-10T00:52:18.798Z,50
2017-11-10T00:53:20.626Z,49.7
2017-11-10T00:54:22.081Z,49.7
2017-11-10T00:55:23.564Z,49.8
2017-11-10T00:56:25.371Z,49.7
2017-11-10T00:57:27.533Z,49.9
2017-11-10T00:58:29.330Z,49.8
2017-11-10T00:59:31.148Z,50
2017-11-10T01:02:33.795Z,49.8
2017-11-10T01:03:35.957Z,49.7
2017-11-10T01:04:37.755Z,49.8
2017-11-10T01:05:39.574Z,49.8
2017-11-10T01:06:41.740Z,49.7
2017-11-10T01:07:43.903Z,49.9
2017-11-10T01:08:45.742Z,49.8
2017-11-10T01:09:47.920Z,49.9
2017-11-10T01:10:50.072Z,49.8
2017-11-10T01:11:51.932Z,50
2017-11-10T01:12:53.734Z,49.8
2017-11-10T01:13:55.536Z,49.8
2017-11-10T01:14:57.696Z,49.7
2017-11-10T01:15:59.860Z,50
2017-11-10T01:17:01.686Z,49.7
2017-11-10T01:18:03.134Z,50
2017-11-10T01:19:04.604Z,50
2017-11-10T01:20:06.459Z,49.9
2017-11-10T01:21:08.624Z,50.1
2017-11-10T01:22:10.823Z,50
2017-11-10T01:23:12.619Z,50
2017-11-10T01:24:14.782Z,49.9
2017-11-10T01:25:16.944Z,49.8
2017-11-10T01:26:19.107Z,49.8
2017-11-10T01:27:20.588Z,49.8
2017-11-10T01:28:22.406Z,49.8
2017-11-10T01:29:24.568Z,50
2017-11-10T01:30:26.388Z,50
2017-11-10T01:31:27.845Z,49.8
2017-11-10T01:32:30.011Z,49.7
2017-11-10T01:33:31.493Z,49.8
2017-11-10T01:34:32.967Z,49.6
2017-11-10T01:35:34.443Z,50
2017-11-10T01:36:36.238Z,49.8
2017-11-10T01:37:38.401Z,49.8
2017-11-10T01:38:39.854Z,49.8
2017-11-10T01:39:42.017Z,49.5
2017-11-10T01:40:43.839Z,49.8
2017-11-10T01:41:45.293Z,49.7
2017-11-10T01:42:47.453Z,49.7
2017-11-10T01:43:49.614Z,49.7
2017-11-10T01:44:51.775Z,49.6
2017-11-10T01:45:53.594Z,49.6
2017-11-10T01:46:55.071Z,49.6
2017-11-10T01:47:56.890Z,49.9
2017-11-10T01:48:58.685Z,49.8
2017-11-10T01:50:00.159Z,49.6
2017-11-10T01:51:02.320Z,49.5
2017-11-10T01:52:04.481Z,49.6
2017-11-10T01:53:05.933Z,49.5
2017-11-10T01:54:07.768Z,49.5
2017-11-10T01:55:09.585Z,49.5
2017-11-10T01:56:11.404Z,49.6
2017-11-10T01:57:13.222Z,49.5
2017-11-10T01:58:15.375Z,49.5
2017-11-10T01:59:17.536Z,49.9
2017-11-10T02:00:19.355Z,49.5
2017-11-10T02:01:21.178Z,49.4
2017-11-10T02:02:23.345Z,49.5
2017-11-10T02:03:24.835Z,49.6
2017-11-10T02:04:25.964Z,49.8
2017-11-10T02:05:28.125Z,49.6
2017-11-10T02:06:29.923Z,49.6
2017-11-10T02:07:31.743Z,49.6
2017-11-10T02:08:33.561Z,49.7
2017-11-10T02:09:35.723Z,49.8
2017-11-10T02:10:37.182Z,49.8
2017-11-10T02:11:39.337Z,49.8
2017-11-10T02:12:41.498Z,50
2017-11-10T02:13:43.293Z,50
2017-11-10T02:14:45.122Z,49.9
2017-11-10T02:15:47.303Z,49.9
2017-11-10T02:16:49.463Z,49.7
2017-11-10T02:17:51.263Z,49.7
2017-11-10T02:18:52.711Z,49.8
2017-11-10T02:19:54.530Z,49.9
2017-11-10T02:20:56.690Z,49.8
2017-11-10T02:21:58.853Z,49.9
2017-11-10T02:23:00.332Z,49.8
2017-11-10T02:24:02.129Z,49.8
2017-11-10T02:25:03.607Z,49.7
2017-11-10T02:26:05.424Z,49.8
2017-11-10T02:27:07.585Z,49.8
2017-11-10T02:28:09.036Z,50
2017-11-10T02:29:11.199Z,49.8
2017-11-10T02:30:13.365Z,49.9
2017-11-10T02:31:15.529Z,49.9
2017-11-10T02:32:17.329Z,49.8
2017-11-10T02:33:19.155Z,50
2017-11-10T02:34:21.324Z,49.9
2017-11-10T02:35:23.488Z,49.6
2017-11-10T02:36:24.961Z,49.9
2017-11-10T02:37:27.124Z,49.4
2017-11-10T02:38:29.286Z,49.6
2017-11-10T02:39:31.087Z,49.4
2017-11-10T02:40:32.907Z,49.6
2017-11-10T02:41:34.725Z,49.5
2017-11-10T02:42:36.889Z,49.5
2017-11-10T02:43:38.759Z,49.5
2017-11-10T02:44:40.576Z,49.5
2017-11-10T02:45:41.688Z,49.6
2017-11-10T02:46:43.849Z,49.6
2017-11-10T02:47:46.010Z,49.6
2017-11-10T02:48:47.486Z,49.6
2017-11-10T02:49:49.658Z,49.6
2017-11-10T02:50:51.820Z,49.3
2017-11-10T02:51:53.636Z,49.4
2017-11-10T02:52:54.777Z,49.5
2017-11-10T02:53:56.254Z,49.4
2017-11-10T02:54:58.415Z,49.3
2017-11-10T02:56:00.243Z,50
2017-11-10T02:57:01.705Z,49.5
2017-11-10T02:58:03.523Z,49.5
2017-11-10T02:59:05.320Z,49.6
2017-11-10T03:00:07.480Z,49.3
2017-11-10T03:01:09.643Z,49.6
2017-11-10T03:02:11.811Z,49.5
2017-11-10T03:03:13.622Z,49.4
2017-11-10T03:04:15.452Z,49.3
2017-11-10T03:05:17.617Z,49.4
2017-11-10T03:06:19.433Z,49.5
2017-11-10T03:07:21.614Z,49.6
2017-11-10T03:08:23.772Z,49.5
2017-11-10T03:09:25.590Z,49.5
2017-11-10T03:10:27.755Z,49.7
2017-11-10T03:11:29.548Z,49.4
2017-11-10T03:12:31.392Z,50.1
2017-11-10T03:13:33.548Z,49.5
2017-11-10T03:14:35.002Z,49.5
2017-11-10T03:15:37.166Z,49.4
2017-11-10T03:16:38.986Z,49.8
2017-11-10T03:17:40.441Z,49.3
2017-11-10T03:18:41.548Z,49.5
2017-11-10T03:19:43.368Z,49.5
2017-11-10T03:20:45.528Z,49.5
2017-11-10T03:21:47.691Z,50
2017-11-10T03:22:49.511Z,49.6
2017-11-10T03:23:51.321Z,49.5
2017-11-10T03:24:52.767Z,49.5
2017-11-10T03:25:54.933Z,50.1
2017-11-10T03:26:57.093Z,50
2017-11-10T03:27:58.909Z,49.3
2017-11-10T03:29:00.396Z,49.5
2017-11-10T03:30:02.192Z,49.7
2017-11-10T03:31:03.649Z,49.4
2017-11-10T03:32:05.490Z,49.6
2017-11-10T03:33:06.597Z,49.6
2017-11-10T03:34:08.052Z,49.4
2017-11-10T03:35:08.818Z,50
2017-11-10T03:36:10.636Z,49.6
2017-11-10T03:37:12.811Z,49.8
2017-11-10T03:38:14.983Z,49.4
2017-11-10T03:39:16.768Z,49.6
2017-11-10T03:40:18.933Z,49.7
2017-11-10T03:41:20.734Z,49.7
2017-11-10T03:42:22.893Z,49.6
2017-11-10T03:43:25.058Z,49.6
2017-11-10T03:44:26.535Z,49.6
2017-11-10T03:45:28.697Z,49.6
2017-11-10T03:46:30.513Z,49.4
2017-11-10T03:47:32.336Z,49.4
2017-11-10T03:48:34.498Z,49.6
2017-11-10T03:49:36.293Z,49.8
2017-11-10T03:50:38.113Z,49.4
2017-11-10T03:51:40.304Z,49.5
2017-11-10T03:52:42.460Z,49.6
2017-11-10T03:53:44.623Z,49.4
2017-11-10T03:54:45.754Z,49.5
2017-11-10T03:55:47.565Z,49.7
2017-11-10T03:56:49.385Z,49.6
2017-11-10T03:57:51.549Z,49.4
2017-11-10T03:58:53.367Z,49.4
2017-11-10T03:59:55.163Z,49.8
2017-11-10T04:00:56.641Z,49.5
2017-11-10T04:01:58.456Z,49.4
2017-11-10T04:03:00.255Z,49.7
2017-11-10T04:04:02.415Z,49.5
2017-11-10T04:05:04.234Z,49.4
2017-11-10T04:06:06.068Z,49.6
2017-11-10T04:07:07.541Z,49.4
2017-11-10T04:08:08.993Z,49.5
2017-11-10T04:09:10.811Z,49.4
2017-11-10T04:10:12.294Z,49.5
2017-11-10T04:11:13.743Z,49.4
2017-11-10T04:12:15.926Z,49.4
2017-11-10T04:13:18.088Z,49.3
2017-11-10T04:14:19.209Z,49.6
2017-11-10T04:15:21.025Z,49.4
2017-11-10T04:16:23.198Z,49.8
2017-11-10T04:17:24.651Z,49.8
2017-11-10T04:18:26.106Z,49.6
2017-11-10T04:19:27.921Z,49.6
2017-11-10T04:20:29.717Z,49.5
2017-11-10T04:21:31.534Z,49.5
2017-11-10T04:22:33.696Z,49.6
2017-11-10T04:23:35.858Z,49.5
2017-11-10T04:24:38.020Z,49.6
2017-11-10T04:25:40.186Z,49.5
2017-11-10T04:26:42.349Z,49.5
2017-11-10T04:27:43.804Z,49.7
2017-11-10T04:28:45.623Z,49.4
2017-11-10T04:29:47.096Z,49.6
2017-11-10T04:30:49.258Z,49.8
2017-11-10T04:31:51.082Z,49.8
2017-11-10T04:32:53.238Z,49.6
2017-11-10T04:33:55.399Z,49.5
2017-11-10T04:34:57.196Z,49.5
2017-11-10T04:35:58.653Z,49.5
2017-11-10T04:37:00.471Z,49.4
2017-11-10T04:38:02.631Z,49.5
2017-11-10T04:39:04.085Z,49.6
2017-11-10T04:40:05.904Z,49.5
2017-11-10T04:41:07.723Z,49.5
2017-11-10T04:42:09.197Z,49.6
2017-11-10T04:43:10.378Z,49.8
2017-11-10T04:44:11.850Z,49.5
2017-11-10T04:45:13.670Z,49.5
2017-11-10T04:46:15.829Z,49.5
2017-11-10T04:47:17.990Z,49.4
2017-11-10T04:48:19.096Z,49.5
2017-11-10T04:49:20.571Z,49.5
2017-11-10T04:50:22.024Z,49.5
2017-11-10T04:51:23.504Z,49.5
2017-11-10T04:52:25.664Z,49.6
2017-11-10T04:53:27.482Z,49.5
2017-11-10T04:54:29.643Z,49.5
2017-11-10T04:55:31.441Z,49.5
2017-11-10T04:56:32.952Z,49.5
2017-11-10T04:57:34.770Z,49.6
2017-11-10T04:58:36.587Z,49.5
2017-11-10T04:59:38.748Z,49.5
2017-11-10T05:00:40.569Z,49.5
2017-11-10T05:01:42.366Z,49.4
2017-11-10T05:02:44.186Z,49.5
2017-11-10T05:03:46.354Z,49.4
2017-11-10T05:04:47.805Z,49.5
2017-11-10T05:05:49.963Z,49.5
2017-11-10T05:06:51.072Z,49.9
2017-11-10T05:07:53.234Z,49.4
2017-11-10T05:08:55.412Z,49.6
2017-11-10T05:09:57.230Z,49.6
2017-11-10T05:10:59.403Z,49.6
2017-11-10T05:12:01.223Z,49.5
2017-11-10T05:13:02.695Z,49.6
2017-11-10T05:14:04.857Z,49.2
2017-11-10T05:15:07.017Z,49.3
2017-11-10T05:16:09.179Z,49.1
2017-11-10T05:17:10.663Z,49.3
2017-11-10T05:18:12.480Z,49.3
2017-11-10T05:19:14.297Z,49.2
2017-11-10T05:20:16.458Z,49.5
2017-11-10T05:21:18.276Z,49
2017-11-10T05:22:20.465Z,49.4
2017-11-10T05:23:22.263Z,49.2
2017-11-10T05:24:24.083Z,49.2
2017-11-10T05:25:25.902Z,49.2
2017-11-10T05:26:27.697Z,49.2
2017-11-10T05:27:29.861Z,49
2017-11-10T05:28:31.333Z,49.4
2017-11-10T05:29:32.784Z,48.9
2017-11-10T05:30:34.599Z,49.3
2017-11-10T05:31:36.420Z,49
2017-11-10T05:32:38.578Z,49.1
2017-11-10T05:33:40.374Z,49.1
2017-11-10T05:34:42.535Z,49
2017-11-10T05:35:44.359Z,49.1
2017-11-10T05:36:45.832Z,49.1
2017-11-10T05:37:47.307Z,49.3
2017-11-10T05:38:49.126Z,49
2017-11-10T05:39:51.309Z,49.2
2017-11-10T05:40:53.118Z,49.1
2017-11-10T05:41:54.933Z,48.6
2017-11-10T05:42:56.391Z,49.5
2017-11-10T05:43:57.860Z,49
2017-11-10T05:45:00.022Z,49.5
2017-11-10T05:46:02.203Z,49
2017-11-10T05:47:04.012Z,49
2017-11-10T05:48:06.169Z,49.2
2017-11-10T05:49:07.986Z,48.7
2017-11-10T05:50:09.795Z,49
2017-11-10T05:51:11.947Z,49
2017-11-10T05:52:14.159Z,49.1
2017-11-10T05:53:15.976Z,48.8
2017-11-10T05:54:17.449Z,49
2017-11-10T05:55:19.623Z,49
2017-11-10T05:56:21.070Z,48.8
2017-11-10T05:57:23.236Z,48.8
2017-11-10T05:58:24.704Z,48.9
2017-11-10T05:59:26.519Z,49
2017-11-10T06:00:28.681Z,48.9
2017-11-10T06:01:30.504Z,48.8
2017-11-10T06:02:32.302Z,49
2017-11-10T06:03:33.761Z,48.7
2017-11-10T06:04:35.234Z,48.9
2017-11-10T06:05:37.032Z,48.9
2017-11-10T06:06:39.195Z,48.9
2017-11-10T06:07:41.357Z,48.9
2017-11-10T06:08:43.180Z,48.9
2017-11-10T06:09:44.994Z,48.9
2017-11-10T06:10:46.791Z,49
2017-11-10T06:11:48.952Z,49
2017-11-10T06:12:50.770Z,49
2017-11-10T06:13:52.593Z,48.7
2017-11-10T06:14:53.707Z,49.1
2017-11-10T06:15:55.871Z,48.9
2017-11-10T06:16:57.341Z,48.6
2017-11-10T06:17:59.163Z,48.6
2017-11-10T06:19:01.318Z,48.6
2017-11-10T06:20:03.147Z,48.5
2017-11-10T06:21:04.618Z,48.6
2017-11-10T06:22:06.778Z,48.6
2017-11-10T06:23:07.889Z,48.6
2017-11-10T06:24:09.365Z,48.6
2017-11-10T06:25:11.535Z,48.6
2017-11-10T06:26:13.696Z,49
2017-11-10T06:27:15.856Z,48.5
2017-11-10T06:28:17.675Z,48.7
2017-11-10T06:29:19.845Z,48.5
2017-11-10T06:30:20.955Z,49
2017-11-10T06:31:22.753Z,48.6
2017-11-10T06:32:24.569Z,48.6
2017-11-10T06:33:26.383Z,49
2017-11-10T06:34:28.548Z,48.7
2017-11-10T06:35:30.360Z,48.9
2017-11-10T06:36:31.838Z,48.7
2017-11-10T06:37:34.001Z,48.6
2017-11-10T06:38:35.822Z,48.7
2017-11-10T06:39:37.988Z,49.1
2017-11-10T06:40:39.790Z,49
2017-11-10T06:41:41.612Z,49.4
2017-11-10T06:42:43.433Z,48.8
2017-11-10T06:43:44.897Z,48.9
2017-11-10T06:44:46.356Z,49
2017-11-10T06:45:48.520Z,48.7
2017-11-10T06:46:50.347Z,48.7
2017-11-10T06:47:51.831Z,49
2017-11-10T06:48:53.311Z,49
2017-11-10T06:49:55.131Z,49.2
2017-11-10T06:50:57.299Z,48.8
2017-11-10T06:51:59.459Z,48.7
2017-11-10T06:53:01.283Z,49
2017-11-10T06:54:03.483Z,48.7
2017-11-10T06:55:05.648Z,48.8
2017-11-10T06:56:07.462Z,48.8
2017-11-10T06:57:09.260Z,48.9
2017-11-10T06:58:11.444Z,49.1
2017-11-10T06:59:12.917Z,48.9
2017-11-10T07:00:15.078Z,48.8
2017-11-10T07:01:16.876Z,48.9
2017-11-10T07:02:18.328Z,48.7
2017-11-10T07:03:20.491Z,48.6
2017-11-10T07:04:21.622Z,48.7
2017-11-10T07:05:23.785Z,48.7
2017-11-10T07:06:25.609Z,48.7
2017-11-10T07:07:27.426Z,48.7
2017-11-10T07:08:29.612Z,48.7
2017-11-10T07:09:31.439Z,48.7
2017-11-10T07:10:33.604Z,48.6
2017-11-10T07:11:35.082Z,48.6
2017-11-10T07:12:36.560Z,49
2017-11-10T07:13:38.724Z,48.5
2017-11-10T07:14:40.554Z,49.3
2017-11-10T07:15:42.710Z,48.6
2017-11-10T07:16:43.820Z,48.5
2017-11-10T07:17:45.295Z,48.6
2017-11-10T07:18:47.503Z,48.7
2017-11-10T07:19:49.324Z,48.7
2017-11-10T07:20:50.435Z,49
2017-11-10T07:21:51.893Z,49
2017-11-10T07:22:53.760Z,49
2017-11-10T07:23:55.578Z,48.7
2017-11-10T07:24:57.740Z,49
2017-11-10T07:25:59.203Z,49.3
2017-11-10T07:27:01.016Z,49.2
2017-11-10T07:28:03.175Z,49.2
2017-11-10T07:29:05.340Z,48.6
2017-11-10T07:30:07.503Z,48.6
2017-11-10T07:31:09.338Z,48.6
2017-11-10T07:32:11.182Z,48.7
2017-11-10T07:33:13.024Z,48.7
2017-11-10T07:34:14.879Z,48.7
2017-11-10T07:35:17.055Z,49
2017-11-10T07:36:18.871Z,48.9
2017-11-10T07:37:20.347Z,49.1
2017-11-10T07:38:22.521Z,49.3
2017-11-10T07:39:24.688Z,48.7
2017-11-10T07:40:26.152Z,48.6
2017-11-10T07:41:27.976Z,49.2
2017-11-10T07:42:30.041Z,49.3
2017-11-10T07:43:31.836Z,48.7
2017-11-10T07:44:33.935Z,48.7
2017-11-10T07:45:35.966Z,48.6
2017-11-10T07:46:37.764Z,48.6
2017-11-10T07:47:39.225Z,48.6
2017-11-10T07:48:41.049Z,49.2
2017-11-10T07:49:43.218Z,48.7
2017-11-10T07:50:44.331Z,48.7
2017-11-10T07:51:46.547Z,49
2017-11-10T07:52:48.005Z,48.9
2017-11-10T07:53:50.175Z,48.6
2017-11-10T07:54:51.573Z,49.2
2017-11-10T07:55:53.360Z,48.6
2017-11-10T07:56:55.188Z,49
2017-11-10T07:57:56.666Z,48.5
2017-11-10T07:58:58.488Z,48.6
2017-11-10T08:00:00.659Z,48.6
2017-11-10T08:01:02.116Z,48.5
2017-11-10T08:02:04.102Z,48.7
2017-11-10T08:03:05.796Z,48.5
2017-11-10T08:04:07.964Z,48.5
2017-11-10T08:05:09.587Z,48.6
2017-11-10T08:06:11.738Z,48.6
2017-11-10T08:07:13.215Z,48.6
2017-11-10T08:08:15.038Z,48.7
2017-11-10T08:09:16.545Z,48.8
2017-11-10T08:10:18.367Z,48.5
2017-11-10T08:11:19.846Z,48.6
2017-11-10T08:12:22.013Z,48.6
2017-11-10T08:13:23.512Z,49.3
2017-11-10T08:14:25.680Z,48.6
2017-11-10T08:15:27.846Z,48.5
2017-11-10T08:16:29.669Z,49.3
2017-11-10T08:17:31.132Z,48.6
2017-11-10T08:18:32.943Z,48.7
2017-11-10T08:19:34.759Z,48.7
2017-11-10T08:20:36.579Z,48.6
2017-11-10T08:21:38.746Z,48.7
2017-11-10T08:22:40.572Z,48.5
2017-11-10T08:23:42.735Z,48.7
2017-11-10T08:24:44.218Z,49
2017-11-10T08:25:45.325Z,48.7
2017-11-10T08:26:46.440Z,49
2017-11-10T08:27:48.256Z,48.6
2017-11-10T08:28:50.078Z,48.7
2017-11-10T08:29:52.242Z,48.8
2017-11-10T08:30:54.048Z,48.6
2017-11-10T08:31:56.212Z,49
2017-11-10T08:32:58.033Z,49
2017-11-10T08:33:59.858Z,48.8
2017-11-10T08:35:01.681Z,48.8
2017-11-10T08:36:03.509Z,48.8
2017-11-10T08:37:04.967Z,48.9
2017-11-10T08:38:06.426Z,48.8
2017-11-10T08:39:08.250Z,48.9
2017-11-10T08:40:10.411Z,49.1
2017-11-10T08:41:12.236Z,49
2017-11-10T08:42:14.402Z,48.8
2017-11-10T08:43:15.877Z,48.7
2017-11-10T08:44:17.694Z,49
2017-11-10T08:45:19.526Z,49.3
2017-11-10T08:46:21.327Z,49
2017-11-10T08:47:22.779Z,49
2017-11-10T08:48:24.599Z,49.2
2017-11-10T08:49:26.079Z,49.1
2017-11-10T08:50:27.227Z,49.1
2017-11-10T08:51:28.707Z,49.1
2017-11-10T08:52:30.532Z,49.4
2017-11-10T08:53:32.697Z,49.2
2017-11-10T08:54:34.211Z,49.4
2017-11-10T08:55:36.376Z,49.4
2017-11-10T08:56:38.537Z,49.1
2017-11-10T08:57:40.699Z,49.5
2017-11-10T08:58:42.195Z,49.4
2017-11-10T08:59:44.355Z,49.6
2017-11-10T09:00:45.470Z,49.2
2017-11-10T09:01:47.273Z,49.6
2017-11-10T09:02:48.727Z,49.3
2017-11-10T09:03:50.893Z,49.3
2017-11-10T09:04:52.686Z,49.4
2017-11-10T09:05:54.849Z,49.6
2017-11-10T09:06:56.669Z,49.3
2017-11-10T09:07:58.833Z,49.5
2017-11-10T09:09:00.649Z,49.7
2017-11-10T09:10:02.451Z,49.3
2017-11-10T09:11:04.272Z,49.2
2017-11-10T09:12:06.095Z,49.8
2017-11-10T09:13:07.911Z,49.6
2017-11-10T09:14:09.715Z,49.4
2017-11-10T09:15:11.534Z,49.6
2017-11-10T09:16:13.744Z,49.4
2017-11-10T09:17:15.909Z,49.7
2017-11-10T09:18:17.386Z,49.6
2017-11-10T09:19:18.842Z,49.6
2017-11-10T09:20:20.324Z,49.6
2017-11-10T09:21:22.493Z,49.5
2017-11-10T09:22:24.653Z,49.6
2017-11-10T09:23:26.472Z,49.4
2017-11-10T09:24:28.638Z,49.7
2017-11-10T09:25:30.434Z,49.6
2017-11-10T09:26:31.885Z,49.6
2017-11-10T09:27:33.341Z,49.5
2017-11-10T09:28:35.165Z,49.5
2017-11-10T09:29:36.620Z,49.4
2017-11-10T09:30:38.156Z,49.5
2017-11-10T09:31:40.143Z,49.7
2017-11-10T09:32:42.375Z,49.7
2017-11-10T09:33:44.658Z,49.5
2017-11-10T09:34:46.822Z,49.4
2017-11-10T09:35:48.642Z,49.2
2017-11-10T09:36:50.448Z,49.3
2017-11-10T09:37:52.242Z,49.7
2017-11-10T09:38:54.405Z,49.3
2017-11-10T09:39:56.229Z,49.8
2017-11-10T09:40:57.704Z,49.6
2017-11-10T09:41:59.865Z,49.7
2017-11-10T09:43:02.029Z,49.7
2017-11-10T09:44:03.854Z,49.7
2017-11-10T09:45:06.015Z,49.5
2017-11-10T09:46:08.180Z,49.7
2017-11-10T09:47:09.652Z,49.7
2017-11-10T09:48:11.814Z,49.6
2017-11-10T09:49:13.982Z,49.6
2017-11-10T09:50:15.803Z,49.8
2017-11-10T09:51:17.962Z,49.8
2017-11-10T09:52:20.131Z,49.7
2017-11-10T09:53:21.947Z,49.6
2017-11-10T09:54:23.401Z,49.7
2017-11-10T09:55:25.561Z,49.7
2017-11-10T09:56:27.778Z,49.7
2017-11-10T09:57:29.580Z,49.7
2017-11-10T09:58:31.039Z,49.7
2017-11-10T09:59:32.858Z,49.5
2017-11-10T10:00:35.021Z,49.7
2017-11-10T10:01:37.184Z,49.9
2017-11-10T10:02:39.349Z,49.7
2017-11-10T10:03:40.463Z,49.5
2017-11-10T10:04:42.629Z,49.5
2017-11-10T10:05:44.110Z,49.5
2017-11-10T10:06:45.563Z,49.7
2017-11-10T10:07:47.382Z,49.6
2017-11-10T10:08:49.547Z,49.6
2017-11-10T10:09:51.712Z,49.6
2017-11-10T10:10:53.883Z,49.6
2017-11-10T10:11:56.044Z,49.5
2017-11-10T10:12:57.867Z,49.6
2017-11-10T10:13:59.321Z,49.6
2017-11-10T10:15:00.830Z,49.6
2017-11-10T10:16:02.645Z,49.6
2017-11-10T10:17:04.449Z,49.5
2017-11-10T10:18:06.301Z,49.6
2017-11-10T10:19:08.088Z,49.7
2017-11-10T10:20:09.906Z,49.5
2017-11-10T10:21:11.704Z,49.5
2017-11-10T10:22:13.161Z,49.6
2017-11-10T10:23:14.984Z,49.5
2017-11-10T10:24:16.805Z,49.7
2017-11-10T10:25:18.355Z,49.5
2017-11-10T10:26:20.518Z,49.7
2017-11-10T10:27:22.342Z,49.7
2017-11-10T10:28:24.505Z,49.6
2017-11-10T10:29:26.324Z,49.7
2017-11-10T10:30:28.147Z,49.5
2017-11-10T10:31:29.968Z,49.7
2017-11-10T10:32:31.797Z,49.5
2017-11-10T10:33:33.303Z,49.6
2017-11-10T10:34:35.467Z,49.9
2017-11-10T10:35:37.334Z,50
2017-11-10T10:36:39.501Z,49.6
2017-11-10T10:37:41.671Z,49.9
2017-11-10T10:38:43.128Z,49.7
2017-11-10T10:39:45.294Z,49.6
2017-11-10T10:40:46.745Z,49.7
2017-11-10T10:41:47.850Z,49.7
2017-11-10T10:42:49.310Z,49.7
2017-11-10T10:43:51.484Z,49.8
2017-11-10T10:44:53.302Z,49.7
2017-11-10T10:45:55.468Z,50.2
2017-11-10T10:46:57.290Z,49.7
2017-11-10T10:47:58.741Z,49.9
2017-11-10T10:49:00.562Z,50
2017-11-10T10:50:01.701Z,49.9
2017-11-10T10:51:03.169Z,49.8
2017-11-10T10:52:05.330Z,49.7
2017-11-10T10:53:07.491Z,50.2
2017-11-10T10:54:08.601Z,50
2017-11-10T10:55:10.771Z,50
2017-11-10T10:56:12.260Z,50
2017-11-10T10:57:14.423Z,49.8
2017-11-10T10:58:16.247Z,49.9
2017-11-10T10:59:18.174Z,49.9
2017-11-10T11:00:20.031Z,49.8
2017-11-10T11:01:21.851Z,49.9
2017-11-10T11:02:23.672Z,49.7
2017-11-10T11:03:25.128Z,50.2
2017-11-10T11:04:26.604Z,50.1
2017-11-10T11:05:28.425Z,49.9
2017-11-10T11:06:29.881Z,50.2
2017-11-10T11:07:31.704Z,49.9
2017-11-10T11:08:33.864Z,49.7
2017-11-10T11:09:35.683Z,50
2017-11-10T11:10:37.506Z,49.7
2017-11-10T11:11:39.031Z,50.2
2017-11-10T11:12:40.852Z,50.1
2017-11-10T11:13:42.699Z,49.9
2017-11-10T11:14:44.518Z,49.9
2017-11-10T11:15:45.629Z,50
2017-11-10T11:16:47.796Z,49.8
2017-11-10T11:17:49.259Z,49.8
2017-11-10T11:18:50.739Z,50
2017-11-10T11:19:52.192Z,49.7
2017-11-10T11:20:54.014Z,50
2017-11-10T11:21:55.833Z,49.9
2017-11-10T11:22:57.653Z,49.8
2017-11-10T11:23:59.820Z,49.8
2017-11-10T11:25:01.640Z,50
2017-11-10T11:26:03.801Z,50
2017-11-10T11:27:05.598Z,49.7
2017-11-10T11:28:07.763Z,49.9
2017-11-10T11:29:09.212Z,49.9
2017-11-10T11:30:11.014Z,50
2017-11-10T11:31:12.825Z,49.7
2017-11-10T11:32:14.989Z,49.8
2017-11-10T11:33:16.785Z,50
2017-11-10T11:34:18.678Z,50.3
2017-11-10T11:35:20.481Z,50.1
2017-11-10T11:36:21.961Z,50.1
2017-11-10T11:37:23.434Z,50.1
2017-11-10T11:38:25.267Z,50
2017-11-10T11:39:26.745Z,50.1
2017-11-10T11:40:28.907Z,50.1
2017-11-10T11:41:30.363Z,50.1
2017-11-10T11:42:31.836Z,50.1
2017-11-10T11:43:33.659Z,50.1
2017-11-10T11:44:35.823Z,50.1
2017-11-10T11:45:37.992Z,50.3
2017-11-10T11:46:39.810Z,50.2
2017-11-10T11:47:41.628Z,50.3
2017-11-10T11:48:43.103Z,49.9
2017-11-10T11:49:45.282Z,50.2
2017-11-10T11:50:46.736Z,50.3
2017-11-10T11:51:48.909Z,50.3
2017-11-10T11:52:50.478Z,50
2017-11-10T11:53:52.668Z,50.2
2017-11-10T11:54:54.139Z,50.1
2017-11-10T11:55:55.247Z,50.2
2017-11-10T11:56:57.412Z,50.3
2017-11-10T11:57:59.208Z,50.3
2017-11-10T11:59:00.690Z,50.2
2017-11-10T12:00:02.512Z,50.1
2017-11-10T12:01:03.969Z,50.2
2017-11-10T12:02:05.078Z,50.5
2017-11-10T12:03:06.910Z,50.1
2017-11-10T12:04:09.069Z,50.2
2017-11-10T12:05:10.525Z,50.2
2017-11-10T12:06:12.352Z,50.3
2017-11-10T12:07:14.516Z,50.2
2017-11-10T12:08:16.341Z,50.3
2017-11-10T12:09:18.506Z,50.3
2017-11-10T12:10:20.675Z,50.3
2017-11-10T12:11:22.495Z,50.3
2017-11-10T12:12:24.308Z,50.4
2017-11-10T12:13:26.522Z,50.3
2017-11-10T12:14:28.696Z,50
2017-11-10T12:15:30.496Z,50.2
2017-11-10T12:16:32.660Z,50.5
2017-11-10T12:17:34.877Z,50.5
2017-11-10T12:18:37.039Z,50.2
2017-11-10T12:19:38.495Z,50.3
2017-11-10T12:20:40.323Z,50.5
2017-11-10T12:21:41.444Z,50.6
2017-11-10T12:22:42.919Z,50.6
2017-11-10T12:23:45.082Z,50.6
2017-11-10T12:24:46.539Z,50.4
2017-11-10T12:25:48.337Z,50.4
2017-11-10T12:26:50.503Z,50.4
2017-11-10T12:27:52.319Z,50.1
2017-11-10T12:28:54.481Z,50.4
2017-11-10T12:29:56.645Z,50.2
2017-11-10T12:30:58.468Z,50.1
2017-11-10T12:32:00.628Z,50.3
2017-11-10T12:33:02.451Z,50.4
2017-11-10T12:34:04.256Z,50.4
2017-11-10T12:35:06.415Z,50
2017-11-10T12:36:08.213Z,50.1
2017-11-10T12:37:10.037Z,50.1
2017-11-10T12:38:11.149Z,50.3
2017-11-10T12:39:12.947Z,50.4
2017-11-10T12:40:14.407Z,50.1
2017-11-10T12:41:16.235Z,50
2017-11-10T12:42:17.690Z,50.3
2017-11-10T12:43:19.853Z,50.3
2017-11-10T12:44:22.019Z,50.2
2017-11-10T12:45:23.840Z,50.4
2017-11-10T12:46:24.970Z,50.1
2017-11-10T12:47:27.148Z,50.5
2017-11-10T12:48:28.627Z,50.7
2017-11-10T12:49:30.447Z,50.2
2017-11-10T12:50:32.248Z,50.7
2017-11-10T12:51:34.411Z,50.3
2017-11-10T12:52:36.232Z,50.3
2017-11-10T12:53:38.393Z,50.3
2017-11-10T12:54:40.565Z,50
2017-11-10T12:55:42.384Z,50.4
2017-11-10T12:56:44.556Z,50.5
2017-11-10T12:57:46.721Z,50.6
2017-11-10T12:58:48.537Z,50.2
2017-11-10T12:59:50.337Z,50.2
2017-11-10T13:00:51.817Z,50.2
2017-11-10T13:01:53.978Z,50.2
2017-11-10T13:02:55.484Z,50.3
2017-11-10T13:03:57.303Z,50.2
2017-11-10T13:04:58.756Z,50.4
2017-11-10T13:06:00.583Z,50.4
2017-11-10T13:07:02.396Z,50.5
2017-11-10T13:08:03.854Z,50.2
2017-11-10T13:09:05.649Z,50.3
2017-11-10T13:10:07.471Z,50
2017-11-10T13:11:09.288Z,50.4
2017-11-10T13:12:11.212Z,50.3
2017-11-10T13:13:13.013Z,49.9
2017-11-10T13:14:15.176Z,50.3
2017-11-10T13:15:16.978Z,50.1
2017-11-10T13:16:18.800Z,50
2017-11-10T13:17:20.289Z,50
2017-11-10T13:18:22.107Z,50.5
2017-11-10T13:19:23.931Z,50.2
2017-11-10T13:20:25.408Z,50.4
2017-11-10T13:21:26.883Z,50.5
2017-11-10T13:22:29.046Z,50.4
2017-11-10T13:23:30.874Z,50.3
2017-11-10T13:24:32.671Z,50.4
2017-11-10T13:25:34.469Z,50.3
2017-11-10T13:26:36.271Z,50.3
2017-11-10T13:27:38.437Z,50.3
2017-11-10T13:28:40.598Z,50.4
2017-11-10T13:29:42.049Z,49.8
2017-11-10T13:30:43.874Z,50.4
2017-11-10T13:31:45.695Z,50.3
2017-11-10T13:32:47.562Z,50.1
2017-11-10T13:33:49.385Z,50.3
2017-11-10T13:34:51.183Z,50.2
2017-11-10T13:35:53.003Z,50.3
2017-11-10T13:36:55.168Z,50.3
2017-11-10T13:37:55.942Z,50.2
2017-11-10T13:38:57.754Z,50.3
2017-11-10T13:39:59.553Z,50.2
2017-11-10T13:41:01.714Z,50.1
2017-11-10T13:42:03.538Z,50.3
2017-11-10T13:43:05.354Z,50
2017-11-10T13:44:07.517Z,50.1
2017-11-10T13:45:09.317Z,50.3
2017-11-10T13:46:11.119Z,50.2
2017-11-10T13:47:12.947Z,50.1
2017-11-10T13:48:14.428Z,50.1
2017-11-10T13:49:16.590Z,50.1
2017-11-10T13:50:18.755Z,50.1
2017-11-10T13:51:20.919Z,50